sensor_id;sensor_type;location;lat;lon;timestamp;P1;durP1;ratioP1;P2;durP2;ratioP2
773;SDS011;370;48.810;9.150;2023-02-15T00:01:38;14.45;;;4.28;;
773;SDS011;370;48.810;9.150;2023-02-15T00:04:05;20.08;;;4.68;;
773;SDS011;370;48.810;9.150;2023-02-15T00:06:32;4.85;;;3.40;;
773;SDS011;370;48.810;9.150;2023-02-15T00:08:59;5.13;;;3.00;;
773;SDS011;370;48.810;9.150;2023-02-15T00:11:26;7.75;;;3.90;;
773;SDS011;370;48.810;9.150;2023-02-15T00:14:08;14.60;;;3.45;;
773;SDS011;370;48.810;9.150;2023-02-15T00:16:37;9.30;;;3.25;;
773;SDS011;370;48.810;9.150;2023-02-15T00:19:05;13.02;;;3.35;;
773;SDS011;370;48.810;9.150;2023-02-15T00:21:33;11.20;;;4.00;;
773;SDS011;370;48.810;9.150;2023-02-15T00:24:00;6.20;;;3.53;;
773;SDS011;370;48.810;9.150;2023-02-15T00:26:28;5.30;;;3.25;;
773;SDS011;370;48.810;9.150;2023-02-15T00:28:55;7.90;;;2.78;;
773;SDS011;370;48.810;9.150;2023-02-15T00:31:24;6.38;;;2.50;;
773;SDS011;370;48.810;9.150;2023-02-15T00:33:52;13.77;;;3.58;;
773;SDS011;370;48.810;9.150;2023-02-15T00:36:19;4.68;;;3.30;;
773;SDS011;370;48.810;9.150;2023-02-15T00:38:46;8.90;;;2.13;;
773;SDS011;370;48.810;9.150;2023-02-15T00:41:12;10.07;;;2.38;;
773;SDS011;370;48.810;9.150;2023-02-15T00:43:39;4.60;;;3.78;;
773;SDS011;370;48.810;9.150;2023-02-15T00:46:06;18.40;;;3.47;;
773;SDS011;370;48.810;9.150;2023-02-15T00:48:32;8.68;;;4.00;;
773;SDS011;370;48.810;9.150;2023-02-15T00:51:00;4.07;;;2.00;;
773;SDS011;370;48.810;9.150;2023-02-15T00:53:27;11.95;;;5.30;;
773;SDS011;370;48.810;9.150;2023-02-15T00:55:54;10.40;;;3.05;;
773;SDS011;370;48.810;9.150;2023-02-15T00:58:21;10.27;;;4.22;;
773;SDS011;370;48.810;9.150;2023-02-15T01:00:48;3.75;;;2.60;;
773;SDS011;370;48.810;9.150;2023-02-15T01:03:15;7.00;;;2.88;;
773;SDS011;370;48.810;9.150;2023-02-15T01:05:43;8.00;;;4.30;;
773;SDS011;370;48.810;9.150;2023-02-15T01:08:11;1.33;;;1.23;;
773;SDS011;370;48.810;9.150;2023-02-15T01:10:38;3.10;;;2.22;;
773;SDS011;370;48.810;9.150;2023-02-15T01:13:05;5.40;;;3.28;;
773;SDS011;370;48.810;9.150;2023-02-15T01:15:33;12.27;;;3.83;;
773;SDS011;370;48.810;9.150;2023-02-15T01:18:00;10.00;;;2.85;;
773;SDS011;370;48.810;9.150;2023-02-15T01:20:28;18.27;;;3.47;;
773;SDS011;370;48.810;9.150;2023-02-15T01:22:56;5.40;;;3.55;;
773;SDS011;370;48.810;9.150;2023-02-15T01:25:24;5.75;;;3.78;;
773;SDS011;370;48.810;9.150;2023-02-15T01:27:51;6.13;;;2.85;;
773;SDS011;370;48.810;9.150;2023-02-15T01:30:18;7.57;;;2.78;;
773;SDS011;370;48.810;9.150;2023-02-15T01:32:44;4.63;;;3.05;;
773;SDS011;370;48.810;9.150;2023-02-15T01:35:11;9.27;;;2.55;;
773;SDS011;370;48.810;9.150;2023-02-15T01:37:38;7.20;;;3.90;;
773;SDS011;370;48.810;9.150;2023-02-15T01:40:06;10.70;;;3.40;;
773;SDS011;370;48.810;9.150;2023-02-15T01:42:36;10.43;;;3.35;;
773;SDS011;370;48.810;9.150;2023-02-15T01:45:03;7.78;;;2.90;;
773;SDS011;370;48.810;9.150;2023-02-15T01:47:41;5.70;;;2.72;;
773;SDS011;370;48.810;9.150;2023-02-15T01:50:12;10.43;;;2.50;;
773;SDS011;370;48.810;9.150;2023-02-15T01:52:43;5.88;;;3.58;;
773;SDS011;370;48.810;9.150;2023-02-15T01:55:15;11.20;;;3.80;;
773;SDS011;370;48.810;9.150;2023-02-15T01:57:43;6.82;;;2.88;;
773;SDS011;370;48.810;9.150;2023-02-15T02:00:13;8.70;;;3.15;;
773;SDS011;370;48.810;9.150;2023-02-15T02:02:41;4.65;;;1.67;;
773;SDS011;370;48.810;9.150;2023-02-15T02:05:10;6.40;;;3.47;;
773;SDS011;370;48.810;9.150;2023-02-15T02:07:37;2.28;;;2.10;;
773;SDS011;370;48.810;9.150;2023-02-15T02:10:07;3.45;;;1.90;;
773;SDS011;370;48.810;9.150;2023-02-15T02:12:35;8.57;;;3.05;;
773;SDS011;370;48.810;9.150;2023-02-15T02:15:05;7.88;;;2.97;;
773;SDS011;370;48.810;9.150;2023-02-15T02:17:37;21.00;;;3.95;;
773;SDS011;370;48.810;9.150;2023-02-15T02:20:25;4.90;;;2.65;;
773;SDS011;370;48.810;9.150;2023-02-15T02:23:06;6.53;;;3.53;;
773;SDS011;370;48.810;9.150;2023-02-15T02:29:03;9.48;;;2.50;;
773;SDS011;370;48.810;9.150;2023-02-15T02:32:04;2.05;;;1.45;;
773;SDS011;370;48.810;9.150;2023-02-15T02:34:59;2.58;;;1.90;;
773;SDS011;370;48.810;9.150;2023-02-15T02:37:34;6.78;;;2.15;;
773;SDS011;370;48.810;9.150;2023-02-15T02:40:10;5.60;;;3.30;;
773;SDS011;370;48.810;9.150;2023-02-15T02:42:44;3.42;;;2.00;;
773;SDS011;370;48.810;9.150;2023-02-15T02:45:16;6.72;;;2.92;;
773;SDS011;370;48.810;9.150;2023-02-15T02:47:51;3.38;;;2.10;;
773;SDS011;370;48.810;9.150;2023-02-15T02:50:23;5.65;;;3.15;;
773;SDS011;370;48.810;9.150;2023-02-15T02:52:53;10.77;;;3.50;;
773;SDS011;370;48.810;9.150;2023-02-15T02:55:22;11.98;;;3.05;;
773;SDS011;370;48.810;9.150;2023-02-15T02:57:52;6.22;;;1.60;;
773;SDS011;370;48.810;9.150;2023-02-15T03:00:21;6.65;;;2.95;;
773;SDS011;370;48.810;9.150;2023-02-15T03:02:52;8.88;;;4.65;;
773;SDS011;370;48.810;9.150;2023-02-15T03:05:25;9.77;;;2.75;;
773;SDS011;370;48.810;9.150;2023-02-15T03:07:55;3.70;;;1.73;;
773;SDS011;370;48.810;9.150;2023-02-15T03:10:22;3.25;;;1.98;;
773;SDS011;370;48.810;9.150;2023-02-15T03:12:50;11.23;;;2.70;;
773;SDS011;370;48.810;9.150;2023-02-15T03:15:19;3.78;;;2.30;;
773;SDS011;370;48.810;9.150;2023-02-15T03:17:48;4.72;;;2.53;;
773;SDS011;370;48.810;9.150;2023-02-15T03:20:18;10.52;;;2.72;;
773;SDS011;370;48.810;9.150;2023-02-15T03:22:53;6.38;;;1.88;;
773;SDS011;370;48.810;9.150;2023-02-15T03:25:24;11.35;;;2.80;;
773;SDS011;370;48.810;9.150;2023-02-15T03:27:54;6.75;;;1.80;;
773;SDS011;370;48.810;9.150;2023-02-15T03:30:24;11.50;;;4.05;;
773;SDS011;370;48.810;9.150;2023-02-15T03:32:54;7.60;;;2.45;;
773;SDS011;370;48.810;9.150;2023-02-15T03:35:24;6.15;;;2.30;;
773;SDS011;370;48.810;9.150;2023-02-15T03:37:53;2.90;;;2.15;;
773;SDS011;370;48.810;9.150;2023-02-15T03:40:25;11.18;;;4.15;;
773;SDS011;370;48.810;9.150;2023-02-15T03:43:14;13.45;;;5.00;;
773;SDS011;370;48.810;9.150;2023-02-15T03:45:47;3.05;;;1.35;;
773;SDS011;370;48.810;9.150;2023-02-15T03:48:21;4.88;;;2.97;;
773;SDS011;370;48.810;9.150;2023-02-15T03:50:51;7.90;;;2.58;;
773;SDS011;370;48.810;9.150;2023-02-15T03:53:39;11.57;;;3.70;;
773;SDS011;370;48.810;9.150;2023-02-15T03:56:08;10.43;;;3.97;;
773;SDS011;370;48.810;9.150;2023-02-15T03:58:34;5.05;;;3.65;;
773;SDS011;370;48.810;9.150;2023-02-15T04:01:20;9.27;;;4.15;;
773;SDS011;370;48.810;9.150;2023-02-15T04:04:10;10.23;;;3.30;;
773;SDS011;370;48.810;9.150;2023-02-15T04:06:40;6.32;;;3.08;;
773;SDS011;370;48.810;9.150;2023-02-15T04:09:08;37.03;;;3.65;;
773;SDS011;370;48.810;9.150;2023-02-15T04:11:52;13.02;;;5.32;;
773;SDS011;370;48.810;9.150;2023-02-15T04:14:19;5.53;;;2.70;;
773;SDS011;370;48.810;9.150;2023-02-15T04:17:04;9.68;;;3.08;;
773;SDS011;370;48.810;9.150;2023-02-15T04:19:31;8.20;;;2.47;;
773;SDS011;370;48.810;9.150;2023-02-15T04:22:16;4.45;;;2.72;;
773;SDS011;370;48.810;9.150;2023-02-15T04:25:01;3.53;;;2.53;;
773;SDS011;370;48.810;9.150;2023-02-15T04:27:37;12.95;;;5.25;;
773;SDS011;370;48.810;9.150;2023-02-15T04:30:05;6.68;;;2.75;;
773;SDS011;370;48.810;9.150;2023-02-15T04:32:33;5.93;;;3.10;;
773;SDS011;370;48.810;9.150;2023-02-15T04:35:00;14.13;;;3.20;;
773;SDS011;370;48.810;9.150;2023-02-15T04:37:27;9.63;;;2.60;;
773;SDS011;370;48.810;9.150;2023-02-15T04:39:54;17.08;;;6.88;;
773;SDS011;370;48.810;9.150;2023-02-15T04:42:22;11.73;;;3.00;;
773;SDS011;370;48.810;9.150;2023-02-15T04:44:49;10.50;;;3.80;;
773;SDS011;370;48.810;9.150;2023-02-15T04:47:15;14.00;;;3.22;;
773;SDS011;370;48.810;9.150;2023-02-15T04:49:42;9.43;;;2.15;;
773;SDS011;370;48.810;9.150;2023-02-15T04:52:09;8.55;;;4.93;;
773;SDS011;370;48.810;9.150;2023-02-15T04:54:36;9.63;;;4.55;;
773;SDS011;370;48.810;9.150;2023-02-15T04:57:03;5.15;;;2.95;;
773;SDS011;370;48.810;9.150;2023-02-15T04:59:32;9.15;;;4.07;;
773;SDS011;370;48.810;9.150;2023-02-15T05:01:59;7.75;;;4.20;;
773;SDS011;370;48.810;9.150;2023-02-15T05:04:26;18.58;;;3.95;;
773;SDS011;370;48.810;9.150;2023-02-15T05:06:52;25.90;;;4.63;;
773;SDS011;370;48.810;9.150;2023-02-15T05:09:19;16.33;;;3.85;;
773;SDS011;370;48.810;9.150;2023-02-15T05:11:46;10.23;;;2.67;;
773;SDS011;370;48.810;9.150;2023-02-15T05:14:13;7.72;;;3.35;;
773;SDS011;370;48.810;9.150;2023-02-15T05:16:41;3.65;;;2.00;;
773;SDS011;370;48.810;9.150;2023-02-15T05:19:07;8.65;;;4.40;;
773;SDS011;370;48.810;9.150;2023-02-15T05:21:34;9.32;;;2.95;;
773;SDS011;370;48.810;9.150;2023-02-15T05:24:01;3.05;;;2.90;;
773;SDS011;370;48.810;9.150;2023-02-15T05:26:48;12.05;;;3.13;;
773;SDS011;370;48.810;9.150;2023-02-15T05:29:32;3.75;;;2.22;;
773;SDS011;370;48.810;9.150;2023-02-15T05:32:00;22.58;;;4.28;;
773;SDS011;370;48.810;9.150;2023-02-15T05:34:29;18.98;;;4.57;;
773;SDS011;370;48.810;9.150;2023-02-15T05:36:55;13.63;;;3.33;;
773;SDS011;370;48.810;9.150;2023-02-15T05:39:22;5.95;;;3.10;;
773;SDS011;370;48.810;9.150;2023-02-15T05:41:49;5.70;;;3.92;;
773;SDS011;370;48.810;9.150;2023-02-15T05:44:16;14.55;;;3.47;;
773;SDS011;370;48.810;9.150;2023-02-15T05:46:42;14.05;;;3.53;;
773;SDS011;370;48.810;9.150;2023-02-15T05:49:10;10.18;;;4.20;;
773;SDS011;370;48.810;9.150;2023-02-15T05:51:37;15.88;;;4.43;;
773;SDS011;370;48.810;9.150;2023-02-15T05:54:04;8.88;;;4.60;;
773;SDS011;370;48.810;9.150;2023-02-15T05:56:30;2.00;;;1.20;;
773;SDS011;370;48.810;9.150;2023-02-15T05:58:57;8.55;;;4.00;;
773;SDS011;370;48.810;9.150;2023-02-15T06:01:24;8.07;;;4.82;;
773;SDS011;370;48.810;9.150;2023-02-15T06:03:51;6.22;;;2.90;;
773;SDS011;370;48.810;9.150;2023-02-15T06:06:20;4.25;;;1.77;;
773;SDS011;370;48.810;9.150;2023-02-15T06:08:47;6.88;;;2.83;;
773;SDS011;370;48.810;9.150;2023-02-15T06:11:13;5.30;;;3.78;;
773;SDS011;370;48.810;9.150;2023-02-15T06:13:40;3.67;;;2.78;;
773;SDS011;370;48.810;9.150;2023-02-15T06:16:07;14.75;;;3.40;;
773;SDS011;370;48.810;9.150;2023-02-15T06:18:34;4.43;;;2.10;;
773;SDS011;370;48.810;9.150;2023-02-15T06:21:00;5.32;;;3.45;;
773;SDS011;370;48.810;9.150;2023-02-15T06:23:28;6.18;;;3.83;;
773;SDS011;370;48.810;9.150;2023-02-15T06:25:55;7.65;;;3.70;;
773;SDS011;370;48.810;9.150;2023-02-15T06:28:22;8.48;;;4.60;;
773;SDS011;370;48.810;9.150;2023-02-15T06:30:50;8.30;;;2.35;;
773;SDS011;370;48.810;9.150;2023-02-15T06:33:16;9.45;;;3.38;;
773;SDS011;370;48.810;9.150;2023-02-15T06:35:44;5.97;;;1.75;;
773;SDS011;370;48.810;9.150;2023-02-15T06:38:11;5.07;;;3.30;;
773;SDS011;370;48.810;9.150;2023-02-15T06:40:39;3.08;;;1.42;;
773;SDS011;370;48.810;9.150;2023-02-15T06:43:05;41.15;;;5.18;;
773;SDS011;370;48.810;9.150;2023-02-15T06:45:32;8.48;;;3.72;;
773;SDS011;370;48.810;9.150;2023-02-15T06:47:59;7.82;;;2.83;;
773;SDS011;370;48.810;9.150;2023-02-15T06:50:26;31.30;;;3.78;;
773;SDS011;370;48.810;9.150;2023-02-15T06:52:55;7.03;;;3.60;;
773;SDS011;370;48.810;9.150;2023-02-15T06:55:22;3.67;;;2.78;;
773;SDS011;370;48.810;9.150;2023-02-15T06:57:50;6.15;;;2.90;;
773;SDS011;370;48.810;9.150;2023-02-15T07:00:17;10.88;;;4.55;;
773;SDS011;370;48.810;9.150;2023-02-15T07:02:44;3.45;;;2.75;;
773;SDS011;370;48.810;9.150;2023-02-15T07:05:11;6.05;;;2.92;;
773;SDS011;370;48.810;9.150;2023-02-15T07:07:37;7.38;;;4.28;;
773;SDS011;370;48.810;9.150;2023-02-15T07:10:04;9.93;;;5.35;;
773;SDS011;370;48.810;9.150;2023-02-15T07:12:32;2.28;;;2.13;;
773;SDS011;370;48.810;9.150;2023-02-15T07:15:09;9.60;;;2.95;;
773;SDS011;370;48.810;9.150;2023-02-15T07:17:37;4.32;;;1.98;;
773;SDS011;370;48.810;9.150;2023-02-15T07:20:05;9.98;;;5.75;;
773;SDS011;370;48.810;9.150;2023-02-15T07:22:33;4.70;;;2.75;;
773;SDS011;370;48.810;9.150;2023-02-15T07:25:01;6.40;;;2.85;;
773;SDS011;370;48.810;9.150;2023-02-15T07:27:28;12.18;;;5.22;;
773;SDS011;370;48.810;9.150;2023-02-15T07:29:56;6.97;;;2.53;;
773;SDS011;370;48.810;9.150;2023-02-15T07:32:25;6.70;;;2.05;;
773;SDS011;370;48.810;9.150;2023-02-15T07:34:53;7.30;;;2.45;;
773;SDS011;370;48.810;9.150;2023-02-15T07:37:20;10.18;;;4.40;;
773;SDS011;370;48.810;9.150;2023-02-15T07:39:47;17.38;;;3.92;;
773;SDS011;370;48.810;9.150;2023-02-15T07:42:14;10.20;;;5.07;;
773;SDS011;370;48.810;9.150;2023-02-15T07:44:40;21.95;;;3.20;;
773;SDS011;370;48.810;9.150;2023-02-15T07:47:07;19.33;;;6.28;;
773;SDS011;370;48.810;9.150;2023-02-15T07:49:35;16.77;;;5.35;;
773;SDS011;370;48.810;9.150;2023-02-15T07:52:02;13.35;;;5.45;;
773;SDS011;370;48.810;9.150;2023-02-15T07:54:28;15.50;;;5.88;;
773;SDS011;370;48.810;9.150;2023-02-15T07:56:55;8.93;;;2.78;;
773;SDS011;370;48.810;9.150;2023-02-15T07:59:22;14.40;;;5.03;;
773;SDS011;370;48.810;9.150;2023-02-15T08:01:49;19.48;;;5.78;;
773;SDS011;370;48.810;9.150;2023-02-15T08:04:17;10.15;;;3.28;;
773;SDS011;370;48.810;9.150;2023-02-15T08:06:45;10.70;;;4.50;;
773;SDS011;370;48.810;9.150;2023-02-15T08:09:12;18.42;;;6.55;;
773;SDS011;370;48.810;9.150;2023-02-15T08:11:39;11.20;;;4.95;;
773;SDS011;370;48.810;9.150;2023-02-15T08:14:06;16.75;;;4.88;;
773;SDS011;370;48.810;9.150;2023-02-15T08:16:36;14.75;;;4.57;;
773;SDS011;370;48.810;9.150;2023-02-15T08:19:04;13.40;;;3.00;;
773;SDS011;370;48.810;9.150;2023-02-15T08:21:33;8.93;;;3.97;;
773;SDS011;370;48.810;9.150;2023-02-15T08:24:02;19.02;;;6.05;;
773;SDS011;370;48.810;9.150;2023-02-15T08:26:30;18.52;;;6.07;;
773;SDS011;370;48.810;9.150;2023-02-15T08:28:58;18.10;;;6.32;;
773;SDS011;370;48.810;9.150;2023-02-15T08:31:26;10.25;;;4.38;;
773;SDS011;370;48.810;9.150;2023-02-15T08:33:53;16.13;;;5.05;;
773;SDS011;370;48.810;9.150;2023-02-15T08:36:22;9.50;;;4.22;;
773;SDS011;370;48.810;9.150;2023-02-15T08:38:52;17.58;;;5.97;;
773;SDS011;370;48.810;9.150;2023-02-15T08:41:20;6.78;;;3.60;;
773;SDS011;370;48.810;9.150;2023-02-15T08:43:48;11.00;;;3.63;;
773;SDS011;370;48.810;9.150;2023-02-15T08:46:17;8.68;;;4.05;;
773;SDS011;370;48.810;9.150;2023-02-15T08:48:44;10.57;;;4.97;;
773;SDS011;370;48.810;9.150;2023-02-15T08:51:12;17.85;;;6.05;;
773;SDS011;370;48.810;9.150;2023-02-15T08:53:40;18.13;;;7.38;;
773;SDS011;370;48.810;9.150;2023-02-15T08:56:08;19.15;;;4.93;;
773;SDS011;370;48.810;9.150;2023-02-15T08:58:37;17.67;;;6.38;;
773;SDS011;370;48.810;9.150;2023-02-15T09:01:08;13.13;;;5.32;;
773;SDS011;370;48.810;9.150;2023-02-15T09:03:36;14.32;;;5.93;;
773;SDS011;370;48.810;9.150;2023-02-15T09:06:03;16.38;;;5.10;;
773;SDS011;370;48.810;9.150;2023-02-15T09:08:30;17.02;;;7.35;;
773;SDS011;370;48.810;9.150;2023-02-15T09:11:04;17.40;;;6.45;;
773;SDS011;370;48.810;9.150;2023-02-15T09:13:36;8.48;;;3.90;;
773;SDS011;370;48.810;9.150;2023-02-15T09:16:04;10.75;;;5.15;;
773;SDS011;370;48.810;9.150;2023-02-15T09:18:33;12.23;;;5.65;;
773;SDS011;370;48.810;9.150;2023-02-15T09:21:05;21.35;;;5.13;;
773;SDS011;370;48.810;9.150;2023-02-15T09:23:33;15.70;;;6.70;;
773;SDS011;370;48.810;9.150;2023-02-15T09:26:04;23.42;;;8.15;;
773;SDS011;370;48.810;9.150;2023-02-15T09:28:32;14.15;;;6.13;;
773;SDS011;370;48.810;9.150;2023-02-15T09:31:08;16.80;;;6.00;;
773;SDS011;370;48.810;9.150;2023-02-15T09:33:36;21.40;;;7.03;;
773;SDS011;370;48.810;9.150;2023-02-15T09:36:04;17.98;;;5.85;;
773;SDS011;370;48.810;9.150;2023-02-15T09:38:31;16.30;;;6.80;;
773;SDS011;370;48.810;9.150;2023-02-15T09:41:03;16.15;;;7.90;;
773;SDS011;370;48.810;9.150;2023-02-15T09:43:50;27.45;;;8.93;;
773;SDS011;370;48.810;9.150;2023-02-15T09:46:31;32.70;;;11.40;;
773;SDS011;370;48.810;9.150;2023-02-15T09:49:11;24.63;;;10.60;;
773;SDS011;370;48.810;9.150;2023-02-15T09:54:45;27.40;;;11.77;;
773;SDS011;370;48.810;9.150;2023-02-15T09:57:37;24.07;;;11.50;;
773;SDS011;370;48.810;9.150;2023-02-15T10:00:12;31.40;;;12.40;;
773;SDS011;370;48.810;9.150;2023-02-15T10:02:50;28.97;;;11.77;;
773;SDS011;370;48.810;9.150;2023-02-15T10:05:42;26.00;;;12.20;;
773;SDS011;370;48.810;9.150;2023-02-15T10:08:25;22.33;;;10.33;;
773;SDS011;370;48.810;9.150;2023-02-15T10:11:14;28.33;;;12.30;;
773;SDS011;370;48.810;9.150;2023-02-15T10:14:03;23.27;;;11.00;;
773;SDS011;370;48.810;9.150;2023-02-15T10:16:54;30.97;;;12.40;;
773;SDS011;370;48.810;9.150;2023-02-15T10:19:31;24.83;;;12.37;;
773;SDS011;370;48.810;9.150;2023-02-15T10:22:07;24.67;;;11.70;;
773;SDS011;370;48.810;9.150;2023-02-15T10:24:46;33.50;;;12.50;;
773;SDS011;370;48.810;9.150;2023-02-15T10:27:24;24.97;;;12.40;;
773;SDS011;370;48.810;9.150;2023-02-15T10:29:55;21.90;;;11.90;;
773;SDS011;370;48.810;9.150;2023-02-15T10:32:32;23.17;;;11.97;;
773;SDS011;370;48.810;9.150;2023-02-15T10:35:08;30.83;;;12.97;;
773;SDS011;370;48.810;9.150;2023-02-15T10:37:53;29.50;;;13.70;;
773;SDS011;370;48.810;9.150;2023-02-15T10:40:28;27.93;;;12.80;;
773;SDS011;370;48.810;9.150;2023-02-15T10:43:08;26.50;;;13.60;;
773;SDS011;370;48.810;9.150;2023-02-15T10:45:45;23.83;;;13.00;;
773;SDS011;370;48.810;9.150;2023-02-15T10:51:14;26.53;;;14.13;;
773;SDS011;370;48.810;9.150;2023-02-15T10:53:52;32.10;;;13.77;;
773;SDS011;370;48.810;9.150;2023-02-15T10:56:32;22.23;;;12.30;;
773;SDS011;370;48.810;9.150;2023-02-15T10:59:06;25.90;;;13.23;;
773;SDS011;370;48.810;9.150;2023-02-15T11:01:46;28.13;;;13.00;;
773;SDS011;370;48.810;9.150;2023-02-15T11:04:28;22.77;;;13.63;;
773;SDS011;370;48.810;9.150;2023-02-15T11:07:19;24.03;;;13.40;;
773;SDS011;370;48.810;9.150;2023-02-15T11:09:49;22.80;;;11.80;;
773;SDS011;370;48.810;9.150;2023-02-15T11:12:21;35.13;;;12.70;;
773;SDS011;370;48.810;9.150;2023-02-15T11:14:51;26.43;;;13.60;;
773;SDS011;370;48.810;9.150;2023-02-15T11:17:23;24.00;;;12.93;;
773;SDS011;370;48.810;9.150;2023-02-15T11:19:56;26.57;;;14.10;;
773;SDS011;370;48.810;9.150;2023-02-15T11:22:29;21.70;;;13.13;;
773;SDS011;370;48.810;9.150;2023-02-15T11:24:58;25.87;;;13.20;;
773;SDS011;370;48.810;9.150;2023-02-15T11:27:26;36.37;;;14.50;;
773;SDS011;370;48.810;9.150;2023-02-15T11:29:58;23.17;;;13.70;;
773;SDS011;370;48.810;9.150;2023-02-15T11:32:28;22.80;;;14.00;;
773;SDS011;370;48.810;9.150;2023-02-15T11:34:58;23.17;;;14.00;;
773;SDS011;370;48.810;9.150;2023-02-15T11:37:33;23.20;;;14.83;;
773;SDS011;370;48.810;9.150;2023-02-15T11:40:12;30.27;;;15.20;;
773;SDS011;370;48.810;9.150;2023-02-15T11:42:45;26.50;;;14.73;;
773;SDS011;370;48.810;9.150;2023-02-15T11:45:17;27.33;;;15.07;;
773;SDS011;370;48.810;9.150;2023-02-15T11:47:48;40.33;;;16.50;;
773;SDS011;370;48.810;9.150;2023-02-15T11:50:16;27.07;;;14.37;;
773;SDS011;370;48.810;9.150;2023-02-15T11:52:49;28.50;;;15.70;;
773;SDS011;370;48.810;9.150;2023-02-15T11:55:18;30.60;;;15.03;;
773;SDS011;370;48.810;9.150;2023-02-15T11:57:47;32.40;;;15.10;;
773;SDS011;370;48.810;9.150;2023-02-15T12:00:23;31.50;;;14.43;;
773;SDS011;370;48.810;9.150;2023-02-15T12:03:01;25.33;;;14.70;;
773;SDS011;370;48.810;9.150;2023-02-15T12:05:32;28.87;;;14.80;;
773;SDS011;370;48.810;9.150;2023-02-15T12:08:03;21.97;;;13.80;;
773;SDS011;370;48.810;9.150;2023-02-15T12:10:42;29.57;;;14.03;;
773;SDS011;370;48.810;9.150;2023-02-15T12:13:16;26.27;;;14.03;;
773;SDS011;370;48.810;9.150;2023-02-15T12:15:46;28.00;;;14.40;;
773;SDS011;370;48.810;9.150;2023-02-15T12:18:18;24.40;;;13.03;;
773;SDS011;370;48.810;9.150;2023-02-15T12:20:47;25.13;;;14.00;;
773;SDS011;370;48.810;9.150;2023-02-15T12:23:17;30.07;;;14.57;;
773;SDS011;370;48.810;9.150;2023-02-15T12:25:49;28.47;;;14.50;;
773;SDS011;370;48.810;9.150;2023-02-15T12:28:22;29.10;;;14.60;;
773;SDS011;370;48.810;9.150;2023-02-15T12:30:51;29.23;;;14.53;;
773;SDS011;370;48.810;9.150;2023-02-15T12:33:22;25.13;;;14.30;;
773;SDS011;370;48.810;9.150;2023-02-15T12:35:54;26.53;;;14.50;;
773;SDS011;370;48.810;9.150;2023-02-15T12:38:27;25.70;;;15.63;;
773;SDS011;370;48.810;9.150;2023-02-15T12:40:56;27.50;;;15.13;;
773;SDS011;370;48.810;9.150;2023-02-15T12:43:25;27.83;;;15.80;;
773;SDS011;370;48.810;9.150;2023-02-15T12:45:53;22.87;;;14.10;;
773;SDS011;370;48.810;9.150;2023-02-15T12:48:30;23.27;;;15.40;;
773;SDS011;370;48.810;9.150;2023-02-15T12:50:57;25.73;;;15.57;;
773;SDS011;370;48.810;9.150;2023-02-15T12:53:35;27.27;;;15.50;;
773;SDS011;370;48.810;9.150;2023-02-15T12:56:04;23.03;;;14.60;;
773;SDS011;370;48.810;9.150;2023-02-15T12:58:32;25.23;;;13.87;;
773;SDS011;370;48.810;9.150;2023-02-15T13:03:56;34.97;;;16.90;;
773;SDS011;370;48.810;9.150;2023-02-15T13:06:25;26.00;;;14.47;;
773;SDS011;370;48.810;9.150;2023-02-15T13:08:54;25.47;;;14.17;;
773;SDS011;370;48.810;9.150;2023-02-15T13:11:25;33.40;;;14.03;;
773;SDS011;370;48.810;9.150;2023-02-15T13:13:53;24.70;;;12.00;;
773;SDS011;370;48.810;9.150;2023-02-15T13:16:24;25.00;;;12.03;;
773;SDS011;370;48.810;9.150;2023-02-15T13:18:56;30.03;;;12.93;;
773;SDS011;370;48.810;9.150;2023-02-15T13:21:24;32.40;;;13.13;;
773;SDS011;370;48.810;9.150;2023-02-15T13:23:55;22.10;;;10.30;;
773;SDS011;370;48.810;9.150;2023-02-15T13:26:26;23.53;;;11.00;;
773;SDS011;370;48.810;9.150;2023-02-15T13:28:57;25.17;;;10.90;;
773;SDS011;370;48.810;9.150;2023-02-15T13:31:27;31.03;;;11.17;;
773;SDS011;370;48.810;9.150;2023-02-15T13:33:58;29.95;;;10.45;;
773;SDS011;370;48.810;9.150;2023-02-15T13:36:29;25.55;;;10.30;;
773;SDS011;370;48.810;9.150;2023-02-15T13:39:09;23.92;;;10.52;;
773;SDS011;370;48.810;9.150;2023-02-15T13:41:46;22.25;;;8.57;;
773;SDS011;370;48.810;9.150;2023-02-15T13:44:20;23.05;;;10.18;;
773;SDS011;370;48.810;9.150;2023-02-15T13:46:55;25.95;;;10.20;;
773;SDS011;370;48.810;9.150;2023-02-15T13:49:35;22.88;;;9.70;;
773;SDS011;370;48.810;9.150;2023-02-15T13:52:17;41.47;;;9.70;;
773;SDS011;370;48.810;9.150;2023-02-15T13:54:53;25.90;;;9.63;;
773;SDS011;370;48.810;9.150;2023-02-15T13:57:38;23.27;;;10.13;;
773;SDS011;370;48.810;9.150;2023-02-15T14:00:24;30.48;;;9.65;;
773;SDS011;370;48.810;9.150;2023-02-15T14:02:59;25.05;;;9.52;;
773;SDS011;370;48.810;9.150;2023-02-15T14:05:45;22.77;;;8.70;;
773;SDS011;370;48.810;9.150;2023-02-15T14:08:31;24.00;;;8.50;;
773;SDS011;370;48.810;9.150;2023-02-15T14:14:29;18.00;;;8.45;;
773;SDS011;370;48.810;9.150;2023-02-15T14:17:27;22.70;;;8.02;;
773;SDS011;370;48.810;9.150;2023-02-15T14:20:06;18.88;;;7.88;;
773;SDS011;370;48.810;9.150;2023-02-15T14:22:43;17.02;;;7.75;;
773;SDS011;370;48.810;9.150;2023-02-15T14:25:15;17.48;;;7.90;;
773;SDS011;370;48.810;9.150;2023-02-15T14:27:50;24.48;;;7.85;;
773;SDS011;370;48.810;9.150;2023-02-15T14:30:29;23.25;;;7.55;;
773;SDS011;370;48.810;9.150;2023-02-15T14:32:59;20.45;;;8.43;;
773;SDS011;370;48.810;9.150;2023-02-15T14:35:31;27.73;;;9.38;;
773;SDS011;370;48.810;9.150;2023-02-15T14:38:01;24.42;;;8.68;;
773;SDS011;370;48.810;9.150;2023-02-15T14:40:34;25.38;;;10.25;;
773;SDS011;370;48.810;9.150;2023-02-15T14:43:28;23.98;;;9.65;;
773;SDS011;370;48.810;9.150;2023-02-15T14:46:06;25.75;;;8.13;;
773;SDS011;370;48.810;9.150;2023-02-15T14:48:41;22.13;;;8.82;;
773;SDS011;370;48.810;9.150;2023-02-15T14:51:12;32.95;;;9.15;;
773;SDS011;370;48.810;9.150;2023-02-15T14:57:24;18.05;;;7.88;;
773;SDS011;370;48.810;9.150;2023-02-15T14:59:53;18.23;;;8.25;;
773;SDS011;370;48.810;9.150;2023-02-15T15:02:24;21.95;;;8.73;;
773;SDS011;370;48.810;9.150;2023-02-15T15:04:58;14.70;;;7.25;;
773;SDS011;370;48.810;9.150;2023-02-15T15:07:34;15.73;;;7.05;;
773;SDS011;370;48.810;9.150;2023-02-15T15:10:05;37.65;;;8.43;;
773;SDS011;370;48.810;9.150;2023-02-15T15:12:53;24.35;;;7.90;;
773;SDS011;370;48.810;9.150;2023-02-15T15:15:32;18.40;;;8.45;;
773;SDS011;370;48.810;9.150;2023-02-15T15:18:02;18.63;;;7.60;;
773;SDS011;370;48.810;9.150;2023-02-15T15:20:43;14.70;;;7.50;;
773;SDS011;370;48.810;9.150;2023-02-15T15:26:23;21.50;;;6.95;;
773;SDS011;370;48.810;9.150;2023-02-15T15:29:00;16.02;;;6.45;;
773;SDS011;370;48.810;9.150;2023-02-15T15:31:37;16.20;;;7.50;;
773;SDS011;370;48.810;9.150;2023-02-15T15:34:21;13.23;;;5.03;;
773;SDS011;370;48.810;9.150;2023-02-15T15:46:24;16.73;;;6.93;;
773;SDS011;370;48.810;9.150;2023-02-15T15:49:06;14.25;;;6.15;;
773;SDS011;370;48.810;9.150;2023-02-15T15:51:39;16.52;;;5.85;;
773;SDS011;370;48.810;9.150;2023-02-15T15:54:11;16.42;;;6.63;;
773;SDS011;370;48.810;9.150;2023-02-15T15:56:41;19.80;;;7.22;;
773;SDS011;370;48.810;9.150;2023-02-15T15:59:12;21.50;;;7.35;;
773;SDS011;370;48.810;9.150;2023-02-15T16:01:44;23.58;;;6.97;;
773;SDS011;370;48.810;9.150;2023-02-15T16:04:12;19.00;;;7.03;;
773;SDS011;370;48.810;9.150;2023-02-15T16:06:49;24.08;;;7.90;;
773;SDS011;370;48.810;9.150;2023-02-15T16:12:36;10.35;;;5.60;;
773;SDS011;370;48.810;9.150;2023-02-15T16:15:05;15.50;;;7.28;;
773;SDS011;370;48.810;9.150;2023-02-15T16:17:40;17.80;;;7.90;;
773;SDS011;370;48.810;9.150;2023-02-15T16:20:13;15.98;;;6.57;;
773;SDS011;370;48.810;9.150;2023-02-15T16:22:45;45.60;;;7.88;;
773;SDS011;370;48.810;9.150;2023-02-15T16:28:05;15.88;;;6.25;;
773;SDS011;370;48.810;9.150;2023-02-15T16:30:34;14.85;;;7.18;;
773;SDS011;370;48.810;9.150;2023-02-15T16:33:05;33.92;;;11.82;;
773;SDS011;370;48.810;9.150;2023-02-15T16:35:34;17.17;;;6.35;;
773;SDS011;370;48.810;9.150;2023-02-15T16:38:03;18.98;;;7.18;;